Bowerman Airport Hoquiam US
ICAO: KHQM
IATA: HQM
Category: Medium
Scheduled Services: No

Elevation: 18 ft
TransAlt. 18000 ft.

Airport Communications:
ASOS:135.775
SEATTLE CNTR:128.3
SEATTLE RDO:122.2
CTAF/UNICOM:122.7

KHQM Zoom In..

If you have problems with the map follow the link
https://www.worldairports.se/pages/airport.php?
ICAO=KHQM

Runways:

(A) RW 06 length 5000 ft width 150 ft
---- / hdg 60

(B) RW 24 length 5000 ft width 150 ft
ILS 108.70 / hdg 240

Location; KHQM
Day. 24 / Time. 10.53 Zulu
* Altimeter: 30.21
* Temperature: 06° c. 42.8°f.
* Wind from: 060° Speed 05 kn.
Dewpoint: 06° c.
Visibility: 1/4 Statute Miles.
Conditions: Fog.

KHQM 241053Z AUTO 06005KT 1/4SM FG VV002 06/06 A3021 RMK AO2 SLP234 T00610061


Wind From 060°
Speed 05 kn.

 
 
jpsmedia.com for Web Design worldairports.se 2019   terms of use